createdAt,value
2022-11-28T00:01:09.814Z,5.40
2022-11-28T00:03:37.046Z,5.50
2022-11-28T00:06:07.496Z,5.50
2022-11-28T00:08:35.276Z,5.50
2022-11-28T00:11:07.215Z,5.50
2022-11-28T00:13:36.669Z,5.50
2022-11-28T00:16:05.138Z,5.50
2022-11-28T00:18:32.620Z,5.60
2022-11-28T00:21:04.424Z,5.60
2022-11-28T00:23:32.023Z,5.60
2022-11-28T00:26:03.284Z,5.70
2022-11-28T00:28:30.464Z,5.70
2022-11-28T00:30:57.661Z,5.70
2022-11-28T00:33:25.193Z,5.80
2022-11-28T00:35:57.752Z,5.90
2022-11-28T00:38:24.952Z,5.90
2022-11-28T00:41:02.002Z,5.90
2022-11-28T00:43:29.399Z,5.90
2022-11-28T00:45:56.813Z,6.00
2022-11-28T00:48:24.415Z,6.00
2022-11-28T00:50:51.856Z,6.00
2022-11-28T00:53:21.668Z,6.00
2022-11-28T00:55:49.638Z,6.00
2022-11-28T00:58:16.831Z,6.00
2022-11-28T01:00:44.092Z,5.90
2022-11-28T01:03:11.352Z,5.90
2022-11-28T01:05:40.216Z,5.90
2022-11-28T01:08:07.627Z,5.90
2022-11-28T01:10:34.796Z,5.90
2022-11-28T01:13:01.979Z,5.90
2022-11-28T01:15:29.144Z,5.80
2022-11-28T01:17:56.356Z,5.70
2022-11-28T01:20:23.648Z,5.80
2022-11-28T01:22:50.881Z,5.80
2022-11-28T01:25:18.147Z,5.80
2022-11-28T01:27:45.274Z,5.80
2022-11-28T01:30:12.515Z,5.90
2022-11-28T01:32:39.674Z,5.80
2022-11-28T01:35:06.937Z,5.80
2022-11-28T01:37:34.132Z,5.80
2022-11-28T01:40:01.280Z,5.80
2022-11-28T01:42:28.490Z,5.90
2022-11-28T01:44:55.628Z,5.80
2022-11-28T01:47:25.168Z,5.80
2022-11-28T01:49:54.378Z,5.70
2022-11-28T01:52:22.027Z,5.60
2022-11-28T01:54:51.284Z,5.60
2022-11-28T01:57:22.342Z,5.50
2022-11-28T01:59:56.116Z,5.50
2022-11-28T02:02:26.972Z,5.50
2022-11-28T02:04:55.085Z,5.40
2022-11-28T02:07:22.468Z,5.30
2022-11-28T02:09:49.670Z,5.30
2022-11-28T02:12:41.147Z,5.30
2022-11-28T02:15:08.439Z,5.30
2022-11-28T02:17:35.610Z,5.30
2022-11-28T02:20:17.400Z,5.40
2022-11-28T02:22:53.229Z,5.30
2022-11-28T02:25:35.759Z,5.30
2022-11-28T02:28:25.056Z,5.40
2022-11-28T02:30:52.188Z,5.40
2022-11-28T02:33:23.007Z,5.40
2022-11-28T02:35:50.128Z,5.40
2022-11-28T02:38:26.539Z,5.40
2022-11-28T02:41:08.180Z,5.40
2022-11-28T02:43:50.090Z,5.50
2022-11-28T02:46:22.777Z,5.50
2022-11-28T02:48:52.959Z,5.50
2022-11-28T02:51:33.369Z,5.60
2022-11-28T02:54:02.023Z,5.60
2022-11-28T02:56:29.471Z,5.70
2022-11-28T02:58:56.671Z,5.60
2022-11-28T03:01:34.714Z,5.60
2022-11-28T03:04:16.046Z,5.60
2022-11-28T03:06:43.187Z,5.70
2022-11-28T03:09:13.375Z,5.70
2022-11-28T03:11:40.482Z,5.70
2022-11-28T03:14:23.976Z,5.70
2022-11-28T03:17:09.993Z,5.70
2022-11-28T03:19:41.979Z,5.80
2022-11-28T03:22:18.120Z,5.80
2022-11-28T03:25:05.537Z,5.70
2022-11-28T03:27:35.297Z,5.70
2022-11-28T03:30:06.405Z,5.60
2022-11-28T03:32:36.401Z,5.60
2022-11-28T03:35:08.957Z,5.50
2022-11-28T03:37:38.840Z,5.50
2022-11-28T03:40:08.649Z,5.50
2022-11-28T03:42:38.007Z,5.50
2022-11-28T03:45:05.218Z,5.50
2022-11-28T03:47:36.546Z,5.50
2022-11-28T03:50:07.421Z,5.50
2022-11-28T03:52:37.493Z,5.50
2022-11-28T03:55:04.828Z,5.60
2022-11-28T03:57:39.671Z,5.60
2022-11-28T04:00:08.090Z,5.70
2022-11-28T04:03:04.020Z,5.60
2022-11-28T04:05:40.252Z,5.60
2022-11-28T04:08:14.461Z,5.60
2022-11-28T04:10:43.818Z,5.50
2022-11-28T04:13:10.946Z,5.40
2022-11-28T04:15:41.073Z,5.30
2022-11-28T04:18:26.216Z,5.30
2022-11-28T04:20:53.404Z,5.20
2022-11-28T04:23:21.651Z,5.20
2022-11-28T04:25:58.249Z,5.20
2022-11-28T04:28:27.252Z,5.20
2022-11-28T04:30:56.200Z,5.30
2022-11-28T04:33:24.847Z,5.30
2022-11-28T04:35:52.849Z,5.40
2022-11-28T04:38:21.163Z,5.50
2022-11-28T04:40:52.988Z,5.40
2022-11-28T04:43:24.352Z,5.50
2022-11-28T04:45:54.787Z,5.60
2022-11-28T04:48:22.215Z,5.60
2022-11-28T04:50:52.550Z,5.60
2022-11-28T04:53:23.897Z,5.70
2022-11-28T04:55:58.769Z,5.70
2022-11-28T04:58:29.144Z,5.80
2022-11-28T05:00:57.306Z,5.80
2022-11-28T05:03:27.638Z,5.80
2022-11-28T05:05:56.052Z,5.90
2022-11-28T05:08:23.248Z,5.90
2022-11-28T05:10:50.446Z,5.80
2022-11-28T05:13:17.915Z,5.70
2022-11-28T05:15:45.122Z,5.70
2022-11-28T05:18:12.316Z,5.80
2022-11-28T05:20:39.644Z,5.80
2022-11-28T05:23:06.815Z,5.80
2022-11-28T05:25:33.977Z,5.90
2022-11-28T05:28:01.273Z,5.90
2022-11-28T05:30:28.519Z,5.70
2022-11-28T05:32:56.268Z,5.70
2022-11-28T05:35:23.496Z,5.70
2022-11-28T05:37:50.678Z,5.70
2022-11-28T05:40:17.910Z,5.80
2022-11-28T05:42:45.211Z,5.80
2022-11-28T05:45:12.368Z,5.80
2022-11-28T05:47:39.711Z,5.90
2022-11-28T05:50:07.241Z,6.00
2022-11-28T05:52:34.442Z,6.10
2022-11-28T05:55:01.755Z,6.10
2022-11-28T05:57:30.045Z,6.20
2022-11-28T05:59:57.560Z,6.20
2022-11-28T06:02:24.993Z,6.30
2022-11-28T06:04:52.273Z,6.30
2022-11-28T06:07:19.928Z,6.30
2022-11-28T06:09:47.279Z,6.30
2022-11-28T06:12:14.426Z,6.30
2022-11-28T06:14:41.619Z,6.30
2022-11-28T06:17:08.829Z,6.30
2022-11-28T06:19:36.074Z,6.20
2022-11-28T06:22:03.287Z,6.20
2022-11-28T06:24:30.508Z,6.30
2022-11-28T06:26:57.683Z,6.30
2022-11-28T06:29:24.904Z,6.30
2022-11-28T06:31:52.239Z,6.30
2022-11-28T06:34:19.415Z,6.30
2022-11-28T06:36:46.681Z,6.30
2022-11-28T06:39:15.358Z,6.40
2022-11-28T06:41:43.117Z,6.40
2022-11-28T06:44:14.732Z,6.40
2022-11-28T06:46:42.469Z,6.30
2022-11-28T06:49:13.156Z,6.30
2022-11-28T06:51:41.035Z,6.30
2022-11-28T06:54:08.560Z,6.30
2022-11-28T06:56:35.777Z,6.20
2022-11-28T06:59:03.052Z,6.30
2022-11-28T07:01:31.165Z,6.40
2022-11-28T07:03:58.460Z,6.40
2022-11-28T07:06:26.155Z,6.40
2022-11-28T07:08:53.808Z,6.50
2022-11-28T07:11:22.609Z,6.50
2022-11-28T07:13:50.560Z,6.50
2022-11-28T07:16:19.642Z,6.40
2022-11-28T07:18:46.965Z,6.40
2022-11-28T07:21:14.750Z,6.30
2022-11-28T07:23:42.781Z,6.30
2022-11-28T07:26:10.977Z,6.30
2022-11-28T07:28:38.464Z,6.30
2022-11-28T07:31:10.551Z,6.40
2022-11-28T07:33:38.798Z,6.30
2022-11-28T07:36:07.461Z,6.30
2022-11-28T07:38:35.188Z,6.40
2022-11-28T07:41:09.942Z,6.50
2022-11-28T07:43:37.565Z,6.50
2022-11-28T07:46:06.111Z,6.50
2022-11-28T07:48:33.832Z,6.50
2022-11-28T07:51:05.060Z,6.60
2022-11-28T07:53:32.232Z,6.70
2022-11-28T07:56:06.264Z,6.80
2022-11-28T07:58:34.043Z,6.90
2022-11-28T08:01:07.698Z,7.10
2022-11-28T08:03:34.895Z,7.10
2022-11-28T08:06:03.302Z,7.20
2022-11-28T08:08:31.013Z,7.40
2022-11-28T08:11:02.194Z,7.40
2022-11-28T08:13:29.621Z,7.40
2022-11-28T08:15:56.832Z,7.50
2022-11-28T08:18:24.250Z,7.50
2022-11-28T08:20:53.768Z,7.40
2022-11-28T08:23:21.021Z,7.50
2022-11-28T08:25:48.174Z,7.50
2022-11-28T08:28:15.386Z,7.50
2022-11-28T08:30:42.573Z,7.50
2022-11-28T08:33:09.819Z,7.40
2022-11-28T08:35:39.102Z,7.40
2022-11-28T08:38:06.292Z,7.40
2022-11-28T08:40:33.445Z,7.50
2022-11-28T08:43:00.628Z,7.50
2022-11-28T08:45:27.784Z,7.60
2022-11-28T08:47:54.989Z,7.70
2022-11-28T08:50:22.174Z,7.80
2022-11-28T08:52:49.999Z,7.80
2022-11-28T08:55:19.022Z,7.90
2022-11-28T08:57:48.228Z,7.90
2022-11-28T09:00:15.731Z,8.00
2022-11-28T09:02:42.855Z,8.10
2022-11-28T09:05:10.031Z,8.20
2022-11-28T09:07:37.297Z,8.10
2022-11-28T09:10:04.724Z,8.20
2022-11-28T09:12:31.878Z,8.30
2022-11-28T09:14:59.051Z,8.40
2022-11-28T09:17:26.345Z,8.40
2022-11-28T09:19:53.591Z,8.40
2022-11-28T09:22:20.772Z,8.50
2022-11-28T09:24:47.931Z,8.60
2022-11-28T09:27:15.095Z,8.60
2022-11-28T09:29:42.544Z,8.60
2022-11-28T09:32:09.941Z,8.40
2022-11-28T09:34:37.179Z,8.40
2022-11-28T09:37:05.147Z,8.30
2022-11-28T09:39:43.876Z,8.30
2022-11-28T09:42:23.325Z,8.30
2022-11-28T09:44:51.821Z,8.30
2022-11-28T09:47:23.192Z,8.40
2022-11-28T09:49:53.427Z,8.60
2022-11-28T09:52:25.867Z,8.70
2022-11-28T09:54:59.584Z,8.70
2022-11-28T09:57:39.143Z,8.90
2022-11-28T10:00:13.778Z,8.90
2022-11-28T10:02:51.995Z,9.00
2022-11-28T10:05:31.520Z,9.00
2022-11-28T10:08:01.617Z,9.00
2022-11-28T10:10:45.952Z,9.10
2022-11-28T10:13:13.124Z,9.10
2022-11-28T10:15:41.004Z,9.20
2022-11-28T10:18:11.904Z,9.30
2022-11-28T10:20:44.129Z,9.20
2022-11-28T10:23:16.367Z,9.30
2022-11-28T10:25:46.799Z,9.40
2022-11-28T10:28:19.740Z,9.40
2022-11-28T10:30:48.939Z,9.50
2022-11-28T10:33:25.624Z,9.60
2022-11-28T10:35:58.618Z,9.70
2022-11-28T10:38:28.492Z,9.80
2022-11-28T10:41:01.890Z,9.80
2022-11-28T10:43:35.629Z,9.90
2022-11-28T10:46:10.494Z,9.90
2022-11-28T10:48:50.383Z,9.90
2022-11-28T10:51:26.359Z,10.00
2022-11-28T10:53:56.486Z,10.10
2022-11-28T10:56:26.490Z,10.00
2022-11-28T10:58:57.040Z,10.20
2022-11-28T11:01:27.330Z,10.20
2022-11-28T11:03:55.936Z,10.20
2022-11-28T11:06:36.117Z,10.20
2022-11-28T11:09:09.954Z,10.20
2022-11-28T11:11:42.857Z,10.30
2022-11-28T11:14:11.118Z,10.30
2022-11-28T11:16:48.840Z,10.20
2022-11-28T11:19:28.643Z,10.20
2022-11-28T11:22:22.186Z,10.20
2022-11-28T11:25:22.516Z,10.20
2022-11-28T11:27:52.132Z,10.20
2022-11-28T11:30:27.258Z,10.20
2022-11-28T11:32:57.372Z,10.30
2022-11-28T11:35:26.314Z,10.10
2022-11-28T11:38:17.266Z,10.10
2022-11-28T11:40:44.765Z,10.00
2022-11-28T11:43:27.046Z,10.00
2022-11-28T11:46:16.188Z,10.00
2022-11-28T11:48:43.393Z,10.00
2022-11-28T11:51:39.486Z,10.00
2022-11-28T11:54:12.854Z,9.90
2022-11-28T11:56:41.150Z,10.00
2022-11-28T11:59:13.332Z,10.00
2022-11-28T12:01:41.317Z,10.00
2022-11-28T12:04:37.121Z,9.90
2022-11-28T12:07:02.904Z,10.00
2022-11-28T12:09:46.769Z,10.00
2022-11-28T12:12:16.935Z,9.90
2022-11-28T12:14:44.783Z,9.90
2022-11-28T12:17:47.275Z,10.00
2022-11-28T12:20:20.703Z,10.10
2022-11-28T12:22:47.864Z,10.00
2022-11-28T12:25:18.502Z,10.00
2022-11-28T12:27:55.307Z,10.00
2022-11-28T12:30:26.042Z,10.10
2022-11-28T12:32:53.157Z,10.00
2022-11-28T12:35:23.533Z,10.00
2022-11-28T12:38:15.047Z,10.10
2022-11-28T12:40:51.199Z,10.10
2022-11-28T12:43:41.381Z,10.00
2022-11-28T12:46:27.399Z,10.00
2022-11-28T12:49:00.530Z,10.10
2022-11-28T12:51:30.540Z,10.10
2022-11-28T12:54:05.049Z,10.10
2022-11-28T12:56:42.354Z,10.10
2022-11-28T12:59:22.834Z,10.00
2022-11-28T13:01:52.885Z,9.90
2022-11-28T13:04:35.210Z,9.80
2022-11-28T13:07:14.457Z,9.80
2022-11-28T13:09:47.081Z,9.80
2022-11-28T13:12:14.288Z,9.80
2022-11-28T13:14:41.633Z,9.80
2022-11-28T13:17:35.981Z,9.70
2022-11-28T13:20:25.349Z,9.70
2022-11-28T13:22:57.213Z,9.60
2022-11-28T13:25:24.336Z,9.60
2022-11-28T13:27:51.504Z,9.60
2022-11-28T13:30:18.844Z,9.50
2022-11-28T13:32:52.164Z,9.50
2022-11-28T13:35:19.645Z,9.40
2022-11-28T13:40:49.185Z,9.40
2022-11-28T13:43:27.997Z,9.30
2022-11-28T13:45:55.593Z,9.30
2022-11-28T13:49:13.347Z,9.30
2022-11-28T13:51:30.155Z,9.20
2022-11-28T13:54:17.435Z,9.10
2022-11-28T13:57:03.535Z,9.10
2022-11-28T13:59:33.112Z,9.00
2022-11-28T14:02:01.831Z,9.00
2022-11-28T14:04:29.787Z,9.00
2022-11-28T14:07:07.429Z,9.10
2022-11-28T14:09:36.660Z,9.10
2022-11-28T14:12:12.603Z,9.00
2022-11-28T14:15:12.001Z,9.00
2022-11-28T14:17:39.166Z,9.00
2022-11-28T14:20:32.481Z,9.00
2022-11-28T14:22:59.673Z,9.00
2022-11-28T14:25:53.219Z,9.00
2022-11-28T14:28:25.924Z,9.00
2022-11-28T14:31:04.033Z,8.90
2022-11-28T14:33:39.540Z,8.90
2022-11-28T14:36:29.568Z,8.90
2022-11-28T14:39:00.892Z,8.80
2022-11-28T14:41:29.432Z,8.80
2022-11-28T14:44:16.557Z,8.90
2022-11-28T14:47:02.435Z,8.90
2022-11-28T14:49:29.680Z,8.80
2022-11-28T14:52:30.791Z,8.80
2022-11-28T14:54:53.347Z,8.80
2022-11-28T14:57:23.651Z,8.70
2022-11-28T14:59:57.548Z,8.70
2022-11-28T15:02:30.796Z,8.70
2022-11-28T15:05:14.574Z,8.70
2022-11-28T15:07:44.870Z,8.60
2022-11-28T15:10:12.530Z,8.60
2022-11-28T15:12:53.202Z,8.60
2022-11-28T15:15:22.604Z,8.50
2022-11-28T15:17:51.382Z,8.50
2022-11-28T15:20:42.476Z,8.50
2022-11-28T15:23:22.036Z,8.50
2022-11-28T15:25:53.116Z,8.50
2022-11-28T15:28:21.056Z,8.40
2022-11-28T15:30:51.330Z,8.30
2022-11-28T15:33:19.008Z,8.20
2022-11-28T15:35:56.114Z,8.20
2022-11-28T15:38:23.813Z,8.20
2022-11-28T15:40:52.480Z,8.10
2022-11-28T15:43:19.734Z,8.10
2022-11-28T15:45:49.159Z,8.00
2022-11-28T15:48:30.960Z,8.00
2022-11-28T15:51:01.887Z,8.00
2022-11-28T15:53:29.543Z,7.90
2022-11-28T15:56:09.692Z,7.90
2022-11-28T15:58:37.056Z,7.90
2022-11-28T16:01:21.159Z,7.80
2022-11-28T16:03:57.584Z,7.80
2022-11-28T16:06:26.732Z,7.80
2022-11-28T16:09:01.517Z,7.70
2022-11-28T16:11:30.790Z,7.70
2022-11-28T16:13:58.967Z,7.70
2022-11-28T16:16:27.765Z,7.70
2022-11-28T16:18:59.234Z,7.70
2022-11-28T16:21:29.667Z,7.80
2022-11-28T16:23:57.069Z,7.80
2022-11-28T16:26:25.714Z,7.80
2022-11-28T16:29:01.330Z,7.70
2022-11-28T16:31:29.329Z,7.70
2022-11-28T16:33:56.824Z,7.70
2022-11-28T16:36:24.321Z,7.60
2022-11-28T16:38:52.922Z,7.70
2022-11-28T16:41:21.530Z,7.60
2022-11-28T16:43:56.144Z,7.60
2022-11-28T16:46:24.465Z,7.60
2022-11-28T16:48:58.508Z,7.70
2022-11-28T16:51:25.680Z,7.60
2022-11-28T16:53:55.203Z,7.60
2022-11-28T16:56:31.459Z,7.60
2022-11-28T16:59:01.882Z,7.50
2022-11-28T17:01:30.528Z,7.50
2022-11-28T17:03:57.945Z,7.50
2022-11-28T17:06:28.500Z,7.50
2022-11-28T17:08:56.628Z,7.50
2022-11-28T17:11:26.577Z,7.40
2022-11-28T17:13:57.228Z,7.40
2022-11-28T17:16:25.982Z,7.40
2022-11-28T17:18:53.183Z,7.40
2022-11-28T17:21:29.636Z,7.40
2022-11-28T17:23:56.834Z,7.40
2022-11-28T17:26:23.991Z,7.40
2022-11-28T17:28:51.198Z,7.50
2022-11-28T17:31:18.938Z,7.50
2022-11-28T17:33:46.173Z,7.50
2022-11-28T17:36:13.481Z,7.40
2022-11-28T17:38:40.650Z,7.40
2022-11-28T17:41:11.961Z,7.50
2022-11-28T17:43:39.502Z,7.40
2022-11-28T17:46:06.966Z,7.40
2022-11-28T17:48:35.632Z,7.40
2022-11-28T17:51:03.754Z,7.40
2022-11-28T17:53:31.404Z,7.40
2022-11-28T17:55:59.821Z,7.40
2022-11-28T17:58:28.812Z,7.30
2022-11-28T18:01:00.450Z,7.50
2022-11-28T18:03:29.143Z,7.50
2022-11-28T18:05:56.394Z,7.50
2022-11-28T18:08:23.643Z,7.60
2022-11-28T18:11:01.591Z,7.60
2022-11-28T18:13:28.848Z,7.60
2022-11-28T18:15:57.327Z,7.50
2022-11-28T18:18:24.956Z,7.50
2022-11-28T18:20:52.552Z,7.40
2022-11-28T18:23:19.945Z,7.50
2022-11-28T18:25:47.455Z,7.50
2022-11-28T18:28:18.876Z,7.40
2022-11-28T18:30:48.557Z,7.40
2022-11-28T18:33:16.704Z,7.50
2022-11-28T18:35:43.970Z,7.40
2022-11-28T18:38:11.957Z,7.50
2022-11-28T18:40:39.593Z,7.40
2022-11-28T18:43:06.951Z,7.30
2022-11-28T18:45:35.325Z,7.30
2022-11-28T18:48:03.247Z,7.30
2022-11-28T18:50:32.208Z,7.20
2022-11-28T18:53:00.720Z,7.20
2022-11-28T18:55:27.970Z,7.20
2022-11-28T18:57:55.188Z,7.20
2022-11-28T19:00:22.547Z,7.20
2022-11-28T19:02:52.064Z,7.30
2022-11-28T19:05:19.355Z,7.20
2022-11-28T19:07:46.612Z,7.20
2022-11-28T19:10:14.350Z,7.20
2022-11-28T19:12:41.914Z,7.20
2022-11-28T19:15:10.853Z,7.20
2022-11-28T19:17:38.033Z,7.10
2022-11-28T19:20:05.809Z,7.10
2022-11-28T19:22:34.405Z,7.10
2022-11-28T19:25:01.748Z,7.10
2022-11-28T19:27:29.018Z,7.10
2022-11-28T19:29:56.468Z,7.10
2022-11-28T19:32:23.776Z,7.10
2022-11-28T19:34:53.509Z,7.00
2022-11-28T19:37:20.812Z,7.00
2022-11-28T19:39:48.106Z,7.00
2022-11-28T19:42:16.293Z,7.00
2022-11-28T19:44:43.791Z,7.00
2022-11-28T19:47:11.083Z,7.10
2022-11-28T19:49:38.563Z,7.10
2022-11-28T19:52:06.235Z,7.00
2022-11-28T19:54:33.752Z,7.00
2022-11-28T19:57:02.575Z,7.00
2022-11-28T19:59:31.358Z,6.90
2022-11-28T20:01:58.945Z,7.00
2022-11-28T20:04:26.344Z,7.00
2022-11-28T20:06:53.991Z,7.00
2022-11-28T20:09:21.274Z,7.00
2022-11-28T20:11:48.788Z,7.00
2022-11-28T20:14:17.147Z,7.00
2022-11-28T20:16:44.928Z,7.00
2022-11-28T20:19:14.219Z,7.00
2022-11-28T20:21:43.507Z,6.90
2022-11-28T20:24:10.771Z,6.90
2022-11-28T20:26:40.713Z,7.00
2022-11-28T20:29:09.601Z,7.00
2022-11-28T20:31:38.223Z,7.00
2022-11-28T20:34:07.635Z,7.00
2022-11-28T20:36:36.621Z,7.10
2022-11-28T20:39:04.451Z,7.10
2022-11-28T20:41:31.819Z,7.10
2022-11-28T20:43:59.542Z,7.10
2022-11-28T20:46:30.922Z,7.00
2022-11-28T20:48:59.483Z,7.00
2022-11-28T20:51:27.748Z,7.00
2022-11-28T20:53:56.242Z,7.00
2022-11-28T20:56:24.519Z,7.00
2022-11-28T20:58:52.013Z,7.10
2022-11-28T21:01:20.694Z,7.00
2022-11-28T21:03:47.951Z,6.90
2022-11-28T21:06:15.443Z,6.90
2022-11-28T21:08:42.779Z,6.90
2022-11-28T21:11:11.409Z,6.90
2022-11-28T21:13:38.567Z,6.90
2022-11-28T21:16:06.776Z,6.90
2022-11-28T21:18:35.176Z,6.90
2022-11-28T21:21:13.002Z,7.00
2022-11-28T21:23:40.244Z,7.10
2022-11-28T21:26:12.104Z,7.10
2022-11-28T21:28:40.819Z,7.10
2022-11-28T21:31:08.960Z,7.20
2022-11-28T21:33:36.156Z,7.20
2022-11-28T21:36:04.181Z,7.20
2022-11-28T21:38:31.560Z,7.20
2022-11-28T21:40:58.952Z,7.20
2022-11-28T21:43:27.688Z,7.20
2022-11-28T21:45:55.000Z,7.20
2022-11-28T21:48:23.061Z,7.20
2022-11-28T21:50:50.880Z,7.20
2022-11-28T21:53:18.197Z,7.10
2022-11-28T21:55:45.370Z,7.10
2022-11-28T21:58:12.604Z,7.20
2022-11-28T22:00:53.199Z,7.20
2022-11-28T22:03:24.713Z,7.10
2022-11-28T22:05:54.940Z,7.10
2022-11-28T22:08:22.655Z,7.20
2022-11-28T22:10:49.907Z,7.20
2022-11-28T22:13:18.254Z,7.10
2022-11-28T22:15:45.600Z,7.10
2022-11-28T22:18:12.904Z,7.10
2022-11-28T22:20:43.708Z,7.20
2022-11-28T22:23:11.856Z,7.20
2022-11-28T22:25:41.958Z,7.20
2022-11-28T22:28:09.144Z,7.20
2022-11-28T22:30:37.505Z,7.20
2022-11-28T22:33:04.913Z,7.10
2022-11-28T22:35:32.402Z,7.10
2022-11-28T22:37:59.627Z,7.20
2022-11-28T22:40:26.934Z,7.20
2022-11-28T22:42:54.822Z,7.20
2022-11-28T22:45:22.039Z,7.30
2022-11-28T22:47:49.318Z,7.30
2022-11-28T22:50:16.819Z,7.20
2022-11-28T22:52:44.606Z,7.10
2022-11-28T22:55:11.876Z,7.00
2022-11-28T22:57:39.170Z,7.00
2022-11-28T23:00:08.834Z,7.00
2022-11-28T23:02:36.501Z,6.90
2022-11-28T23:05:04.175Z,6.90
2022-11-28T23:07:31.503Z,6.80
2022-11-28T23:09:58.762Z,6.80
2022-11-28T23:12:26.116Z,6.80
2022-11-28T23:14:53.484Z,6.80
2022-11-28T23:17:20.700Z,6.80
2022-11-28T23:19:47.907Z,6.90
2022-11-28T23:22:15.501Z,6.90
2022-11-28T23:24:43.064Z,6.80
2022-11-28T23:27:10.607Z,6.90
2022-11-28T23:29:39.583Z,6.80
2022-11-28T23:32:06.878Z,6.80
2022-11-28T23:34:34.304Z,6.80
2022-11-28T23:37:01.570Z,6.80
2022-11-28T23:39:28.979Z,6.80
2022-11-28T23:42:03.978Z,6.80
2022-11-28T23:44:31.182Z,6.70
2022-11-28T23:46:58.369Z,6.80
2022-11-28T23:49:25.562Z,6.90
2022-11-28T23:51:52.922Z,6.90
2022-11-28T23:54:20.351Z,6.90
2022-11-28T23:56:47.547Z,7.00
2022-11-28T23:59:14.747Z,6.90
